createdAt,value
2023-02-03T00:03:23.981Z,3.45
2023-02-03T00:08:26.633Z,3.60
2023-02-03T00:13:30.137Z,3.68
2023-02-03T00:18:33.879Z,3.57
2023-02-03T00:23:36.278Z,3.55
2023-02-03T00:28:40.126Z,3.49
2023-02-03T00:33:42.964Z,3.65
2023-02-03T00:38:46.485Z,3.47
2023-02-03T00:43:49.899Z,3.53
2023-02-03T00:48:52.423Z,3.59
2023-02-03T00:53:55.876Z,3.57
2023-02-03T00:58:58.274Z,3.60
2023-02-03T01:04:03.223Z,3.59
2023-02-03T01:09:07.314Z,3.44
2023-02-03T01:14:10.464Z,3.32
2023-02-03T01:19:13.341Z,3.18
2023-02-03T01:24:15.819Z,3.13
2023-02-03T01:29:18.744Z,3.04
2023-02-03T01:34:21.646Z,2.94
2023-02-03T01:39:24.421Z,2.89
2023-02-03T01:44:39.797Z,2.94
2023-02-03T01:49:49.964Z,2.90
2023-02-03T01:54:55.156Z,2.56
2023-02-03T02:00:00.784Z,2.59
2023-02-03T02:05:10.227Z,2.62
2023-02-03T02:10:12.751Z,2.45
2023-02-03T02:15:18.401Z,2.60
2023-02-03T02:20:58.656Z,2.47
2023-02-03T02:26:26.424Z,2.23
2023-02-03T02:31:51.408Z,2.20
2023-02-03T02:37:03.278Z,2.16
2023-02-03T02:42:15.240Z,1.98
2023-02-03T02:47:22.296Z,2.04
2023-02-03T02:52:30.487Z,1.75
2023-02-03T02:57:37.727Z,1.75
2023-02-03T03:02:40.800Z,1.74
2023-02-03T03:07:55.109Z,1.65
2023-02-03T03:13:02.163Z,1.66
2023-02-03T03:18:31.680Z,1.50
2023-02-03T03:23:40.441Z,1.42
2023-02-03T03:28:51.364Z,1.33
2023-02-03T03:33:55.702Z,1.31
2023-02-03T03:39:23.590Z,1.33
2023-02-03T03:44:31.371Z,1.19
2023-02-03T03:49:36.167Z,1.31
2023-02-03T03:54:41.275Z,1.08
2023-02-03T03:59:49.040Z,0.94
2023-02-03T04:04:53.652Z,1.02
2023-02-03T04:09:56.542Z,1.05
2023-02-03T04:14:58.930Z,0.89
2023-02-03T04:20:01.895Z,1.06
2023-02-03T04:25:06.495Z,0.96
2023-02-03T04:30:10.132Z,1.06
2023-02-03T04:35:15.245Z,0.84
2023-02-03T04:40:18.599Z,0.69
2023-02-03T04:45:21.595Z,0.38
2023-02-03T04:50:25.368Z,0.58
2023-02-03T04:55:29.397Z,0.70
2023-02-03T05:00:33.847Z,0.66
2023-02-03T05:05:36.431Z,-0.48
2023-02-03T05:10:41.280Z,0.52
2023-02-03T05:15:45.312Z,0.64
2023-02-03T05:20:49.752Z,0.33
2023-02-03T05:25:56.278Z,0.78
2023-02-03T05:31:01.131Z,0.74
2023-02-03T05:36:03.736Z,0.74
2023-02-03T05:41:26.014Z,0.97
2023-02-03T05:46:29.224Z,1.18
2023-02-03T05:51:32.341Z,0.95
2023-02-03T05:56:36.716Z,1.25
2023-02-03T06:01:40.640Z,1.01
2023-02-03T06:06:43.070Z,0.82
2023-02-03T06:11:46.608Z,0.69
2023-02-03T06:16:57.368Z,0.33
2023-02-03T06:22:00.580Z,0.42
2023-02-03T06:27:04.395Z,0.16
2023-02-03T06:32:11.129Z,-0.01
2023-02-03T06:37:14.495Z,0.03
2023-02-03T06:42:17.402Z,0.42
2023-02-03T06:47:22.274Z,0.54
2023-02-03T06:52:25.268Z,0.90
2023-02-03T06:57:29.106Z,1.37
2023-02-03T07:02:32.708Z,1.75
2023-02-03T07:07:37.580Z,2.03
2023-02-03T07:12:43.456Z,2.39
2023-02-03T07:17:55.098Z,2.32
2023-02-03T07:22:58.800Z,2.59
2023-02-03T07:28:03.103Z,2.42
2023-02-03T07:33:06.209Z,2.42
2023-02-03T07:38:09.591Z,2.40
2023-02-03T07:43:12.859Z,2.30
2023-02-03T07:48:23.800Z,1.69
2023-02-03T07:53:30.021Z,1.98
2023-02-03T07:58:35.743Z,1.68
2023-02-03T08:03:38.994Z,2.36
2023-02-03T08:08:46.784Z,2.03
2023-02-03T08:13:53.780Z,2.48
2023-02-03T08:19:01.680Z,2.25
2023-02-03T08:24:06.406Z,2.56
2023-02-03T08:29:16.344Z,1.93
2023-02-03T08:34:29.123Z,2.31
2023-02-03T08:39:43.791Z,3.13
2023-02-03T08:44:50.424Z,2.80
2023-02-03T08:49:55.846Z,2.24
2023-02-03T08:55:00.784Z,3.12
2023-02-03T09:00:18.409Z,3.02
2023-02-03T09:05:26.259Z,2.98
2023-02-03T09:10:31.067Z,3.20
2023-02-03T09:15:35.281Z,3.53
2023-02-03T09:20:38.386Z,3.79
2023-02-03T09:25:44.522Z,3.75
2023-02-03T09:30:49.327Z,4.11
2023-02-03T09:35:57.932Z,3.93
2023-02-03T09:41:34.857Z,4.17
2023-02-03T09:52:15.768Z,3.96
2023-02-03T09:57:28.870Z,4.04
2023-02-03T10:02:59.608Z,4.00
2023-02-03T10:08:41.826Z,4.38
2023-02-03T10:14:20.404Z,4.42
2023-02-03T10:19:38.430Z,4.62
2023-02-03T10:25:05.635Z,4.60
2023-02-03T10:30:46.072Z,4.94
2023-02-03T10:35:53.645Z,4.75
2023-02-03T10:40:58.769Z,4.70
2023-02-03T10:46:06.404Z,4.18
2023-02-03T10:51:26.086Z,4.48
2023-02-03T10:56:42.096Z,3.66
2023-02-03T11:01:51.121Z,4.12
2023-02-03T11:06:59.671Z,4.61
2023-02-03T11:12:12.721Z,4.55
2023-02-03T11:17:27.668Z,4.52
2023-02-03T11:22:39.222Z,4.24
2023-02-03T11:27:45.725Z,3.89
2023-02-03T11:32:51.439Z,4.01
2023-02-03T11:43:20.844Z,4.18
2023-02-03T11:48:41.453Z,4.58
2023-02-03T11:54:07.851Z,4.60
2023-02-03T11:59:46.323Z,4.71
2023-02-03T12:05:04.480Z,4.58
2023-02-03T12:10:53.127Z,4.73
2023-02-03T12:22:16.999Z,4.68
2023-02-03T12:27:33.059Z,4.85
2023-02-03T12:40:49.487Z,4.87
2023-02-03T12:46:04.492Z,4.50
2023-02-03T12:51:16.604Z,4.39
2023-02-03T12:56:41.174Z,4.30
2023-02-03T13:02:00.348Z,4.27
2023-02-03T13:07:30.244Z,4.18
2023-02-03T13:12:41.723Z,4.05
2023-02-03T13:18:00.769Z,4.19
2023-02-03T13:23:15.533Z,3.92
2023-02-03T13:28:53.760Z,4.15
2023-02-03T13:34:13.745Z,4.15
2023-02-03T13:39:43.980Z,4.18
2023-02-03T13:45:16.235Z,4.19
2023-02-03T13:50:47.591Z,3.66
2023-02-03T13:56:00.732Z,4.06
2023-02-03T14:01:23.147Z,4.43
2023-02-03T14:06:49.187Z,4.34
2023-02-03T14:11:53.436Z,4.17
2023-02-03T14:16:57.262Z,4.30
2023-02-03T14:22:10.493Z,4.53
2023-02-03T14:27:21.519Z,4.19
2023-02-03T14:32:24.410Z,3.94
2023-02-03T14:37:30.517Z,4.30
2023-02-03T14:43:09.512Z,3.89
2023-02-03T14:48:25.266Z,4.17
2023-02-03T14:54:06.002Z,4.00
2023-02-03T14:59:11.506Z,4.42
2023-02-03T15:04:14.348Z,4.30
2023-02-03T15:09:32.135Z,4.24
2023-02-03T15:14:35.902Z,3.91
2023-02-03T15:19:42.250Z,4.21
2023-02-03T15:24:45.422Z,4.08
2023-02-03T15:29:49.968Z,4.14
2023-02-03T15:34:53.826Z,3.30
2023-02-03T15:40:09.554Z,4.19
2023-02-03T15:45:36.274Z,4.06
2023-02-03T15:50:56.321Z,3.54
2023-02-03T15:56:04.970Z,3.03
2023-02-03T16:01:12.621Z,3.31
2023-02-03T16:06:28.146Z,3.92
2023-02-03T16:11:39.091Z,3.92
2023-02-03T16:16:55.347Z,3.53
2023-02-03T16:22:01.715Z,3.21
2023-02-03T16:27:27.106Z,3.88
2023-02-03T16:32:48.701Z,3.48
2023-02-03T16:38:25.493Z,3.48
2023-02-03T16:43:46.993Z,3.56
2023-02-03T16:49:09.638Z,3.54
2023-02-03T16:54:18.653Z,3.57
2023-02-03T16:59:21.463Z,3.88
2023-02-03T17:04:24.209Z,3.36
2023-02-03T17:09:39.084Z,3.33
2023-02-03T17:14:45.210Z,3.72
2023-02-03T17:19:47.868Z,3.10
2023-02-03T17:24:51.194Z,3.94
2023-02-03T17:29:53.942Z,3.68
2023-02-03T17:34:58.755Z,3.61
2023-02-03T17:56:15.624Z,3.29
2023-02-03T18:01:22.114Z,3.10
2023-02-03T18:06:33.624Z,2.70
2023-02-03T18:11:38.621Z,2.99
2023-02-03T18:16:41.979Z,3.05
2023-02-03T18:21:44.747Z,3.15
2023-02-03T18:26:54.931Z,3.14
2023-02-03T18:32:06.117Z,2.87
2023-02-03T18:37:09.163Z,3.10
2023-02-03T18:42:14.359Z,3.33
2023-02-03T18:47:18.237Z,3.03
2023-02-03T18:52:23.565Z,3.65
2023-02-03T18:57:26.648Z,3.56
2023-02-03T19:02:29.467Z,3.60
2023-02-03T19:07:32.447Z,3.53
2023-02-03T19:12:39.015Z,3.56
2023-02-03T19:17:41.745Z,3.68
2023-02-03T19:22:44.748Z,3.34
2023-02-03T19:27:47.742Z,3.31
2023-02-03T19:32:50.261Z,2.97
2023-02-03T19:37:54.157Z,3.26
2023-02-03T19:42:59.971Z,2.96
2023-02-03T19:48:02.449Z,3.15
2023-02-03T19:53:05.304Z,3.06
2023-02-03T19:58:08.490Z,3.21
2023-02-03T20:03:11.412Z,2.65
2023-02-03T20:08:16.639Z,2.54
2023-02-03T20:13:20.176Z,2.84
2023-02-03T20:18:23.059Z,2.94
2023-02-03T20:23:26.384Z,2.95
2023-02-03T20:28:29.851Z,2.69
2023-02-03T20:33:32.879Z,2.76
2023-02-03T20:38:39.484Z,2.85
2023-02-03T20:43:42.057Z,2.88
2023-02-03T20:48:46.232Z,2.29
2023-02-03T20:53:53.491Z,2.53
2023-02-03T20:58:56.597Z,2.72
2023-02-03T21:04:18.076Z,1.95
2023-02-03T21:09:21.845Z,2.26
2023-02-03T21:14:42.961Z,2.39
2023-02-03T21:19:46.575Z,2.61
2023-02-03T21:24:58.767Z,2.92
2023-02-03T21:30:04.029Z,2.54
2023-02-03T21:35:39.870Z,2.89
2023-02-03T21:40:42.412Z,2.67
2023-02-03T21:45:46.234Z,2.97
2023-02-03T21:50:49.440Z,3.04
2023-02-03T21:55:52.738Z,2.92
2023-02-03T22:00:59.729Z,2.60
2023-02-03T22:06:08.818Z,2.72
2023-02-03T22:11:12.492Z,2.44
2023-02-03T22:16:18.016Z,2.87
2023-02-03T22:21:21.603Z,2.73
2023-02-03T22:26:25.060Z,2.74
2023-02-03T22:31:27.758Z,2.65
2023-02-03T22:36:31.475Z,2.87
2023-02-03T22:41:34.170Z,3.03
2023-02-03T22:46:37.963Z,2.93
2023-02-03T22:51:40.883Z,2.84
2023-02-03T22:56:43.386Z,3.07
2023-02-03T23:01:46.061Z,3.02
2023-02-03T23:06:51.785Z,2.14
2023-02-03T23:11:54.615Z,2.32
2023-02-03T23:16:59.642Z,2.85
2023-02-03T23:22:02.166Z,2.94
2023-02-03T23:27:05.109Z,1.79
2023-02-03T23:32:09.401Z,2.48
2023-02-03T23:37:12.009Z,2.53
2023-02-03T23:42:14.513Z,2.68
2023-02-03T23:47:18.550Z,2.35
2023-02-03T23:52:21.028Z,2.38
2023-02-03T23:57:24.941Z,2.21
